Meteo Giornale » Osservazioni meteo Stati Uniti (USA) » NASA Shuttle Facility
ore: 14:55 - Osservazioni Meteo NASA Shuttle Facility
Lat. 28° 37' N Lon. 80° 43' W Alt. 3 metri s.l.m.
32 °C
Nuvoloso
Temp. 24 Ore
24 °C
32 °C
Nord/Nord-Est
16.7 Km/h
Dew point 25 °C
Umidità 66 %
Visibilità 10 Km
Il sole sorge alle ore 07:00
Il sole tramonta alle ore 19:45
| Data e Ora | Cielo e Fenomeni | T °C | DP °C | Um. % | Pres. hPa | Vis. km | Vento km/h | |
|---|---|---|---|---|---|---|---|---|
| Oggi h: 14:55 | Nuvoloso | 32 | 25 | 66 | 1016 | 10 | N/NE 16.7 | |
| Oggi h: 13:55 | Sereno | 31 | 25 | 70 | 1016 | 10 | N/NE 16.7 | |
| Oggi h: 12:55 | Poco Nuvoloso | 31 | 26 | 74 | 1017 | 10 | N 14.8 | |
| Oggi h: 11:55 | Nuvoloso | 31 | 26 | 74 | 1017 | 10 | N/NE 13 | |
| Oggi h: 11:15 | Nuvoloso | 32 | 25 | 66 | 1017 | 10 | E 14.8 | |
| Oggi h: 11:05 | Molto Nuvoloso | 30 | 25 | 74 | 1017 | 10 | NE 13 | |
| Oggi h: 11:00 | Nuvoloso | 30 | 25 | 74 | 1017 | 10 | N/NE 9.3 | |
| Oggi h: 10:55 | Molto Nuvoloso | 32 | 26 | 70 | 1017 | 10 | NE 9.3 | |
| Oggi h: 10:10 | Molto Nuvoloso | 30 | 25 | 74 | 1017 | 10 | N 5.5 | |
| Oggi h: 09:55 | Nuvoloso | 30 | 25 | 74 | 1016 | 10 | N 0 | |
| Oggi h: 08:55 | Sereno | 29 | 26 | 83 | 1016 | 10 | N 5.5 | |
| Oggi h: 07:55 | Sereno | 26 | 25 | 94 | 1016 | 10 | N 0 | |
| Oggi h: 06:55 | Sereno | 25 | 24 | 94 | 1015 | 10 | N 0 | |
| Oggi h: 05:55 | Sereno | 24 | 24 | 100 | 1015 | 14 | N 5.5 | |
| Oggi h: 04:55 | Sereno | 24 | 23 | 94 | 1015 | 10 | N 0 | |
| Oggi h: 03:55 | Sereno | 25 | 24 | 94 | 1015 | 10 | N 0 | |
| Oggi h: 02:55 | Poco Nuvoloso | 25 | 24 | 94 | 1015 | 10 | N 5.5 | |
| Oggi h: 01:55 | Sereno | 25 | 24 | 94 | 1016 | 10 | N 0 | |
| Oggi h: 00:55 | Sereno | 24 | 24 | 100 | 1016 | 10 | N 0 | |
| Ieri h: 23:55 | Sereno | 25 | 24 | 94 | 1016 | 10 | N 0 | |
| Ieri h: 22:55 | Sereno | 25 | 24 | 94 | 1016 | 10 | N 0 | |
| Ieri h: 21:55 | Sereno | 25 | 24 | 94 | 1016 | 10 | N 5.5 | |
| Ieri h: 20:55 | Poco Nuvoloso | 25 | 24 | 94 | 1016 | 10 | N 5.5 | |
| Ieri h: 19:55 | Sereno | 27 | 24 | 83 | 1016 | 10 | N 0 | |
| Ieri h: 18:55 | Nuvoloso | 28 | 24 | 78 | 1016 | 10 | N 0 | |
| Ieri h: 17:55 | Molto Nuvoloso | 28 | 24 | 78 | 1015 | 10 | N 0 | |
| Ieri h: 16:55 | Nuvoloso | 28 | 25 | 83 | 1015 | 10 | N 0 | |
| Ieri h: 15:55 | Nuvoloso | 27 | 24 | 83 | 1016 | 10 | N 0 | |
| Ieri h: 15:39 | Nuvoloso | 27 | 23 | 78 | 1016 | 10 | N 5.5 | |



